sensor_id;sensor_type;location;lat;lon;timestamp;pressure;altitude;pressure_sealevel;temperature;humidity
1480;BME280;732;51.698;4.886;2024-03-08T00:01:08;101986.81;;;1.13;84.29
1480;BME280;732;51.698;4.886;2024-03-08T00:03:39;101967.75;;;1.08;84.63
1480;BME280;732;51.698;4.886;2024-03-08T00:06:08;101971.41;;;1.05;84.53
1480;BME280;732;51.698;4.886;2024-03-08T00:08:37;101966.19;;;1.04;84.60
1480;BME280;732;51.698;4.886;2024-03-08T00:11:05;101992.28;;;1.26;83.63
1480;BME280;732;51.698;4.886;2024-03-08T00:13:35;101970.84;;;0.99;83.49
1480;BME280;732;51.698;4.886;2024-03-08T00:16:05;101991.19;;;1.13;83.69
1480;BME280;732;51.698;4.886;2024-03-08T00:18:35;101987.81;;;1.11;83.99
1480;BME280;732;51.698;4.886;2024-03-08T00:21:05;101984.31;;;1.10;83.48
1480;BME280;732;51.698;4.886;2024-03-08T00:23:36;101991.22;;;0.95;84.20
1480;BME280;732;51.698;4.886;2024-03-08T00:26:05;101979.22;;;0.89;84.52
1480;BME280;732;51.698;4.886;2024-03-08T00:28:33;101948.56;;;0.71;84.89
1480;BME280;732;51.698;4.886;2024-03-08T00:31:03;101955.06;;;0.81;84.62
1480;BME280;732;51.698;4.886;2024-03-08T00:33:32;101973.75;;;0.94;84.96
1480;BME280;732;51.698;4.886;2024-03-08T00:36:01;101955.75;;;0.85;84.02
1480;BME280;732;51.698;4.886;2024-03-08T00:38:31;101960.00;;;0.87;83.84
1480;BME280;732;51.698;4.886;2024-03-08T00:41:01;101964.50;;;0.85;83.67
1480;BME280;732;51.698;4.886;2024-03-08T00:43:29;101953.75;;;0.72;83.70
1480;BME280;732;51.698;4.886;2024-03-08T00:45:58;101971.09;;;0.77;84.02
1480;BME280;732;51.698;4.886;2024-03-08T00:48:28;101970.03;;;0.81;84.20
1480;BME280;732;51.698;4.886;2024-03-08T00:50:58;101965.38;;;0.86;84.03
1480;BME280;732;51.698;4.886;2024-03-08T00:53:27;101967.91;;;0.87;83.67
1480;BME280;732;51.698;4.886;2024-03-08T00:55:57;101970.31;;;0.74;83.76
1480;BME280;732;51.698;4.886;2024-03-08T00:58:25;101967.31;;;0.65;84.16
1480;BME280;732;51.698;4.886;2024-03-08T01:00:55;101966.50;;;0.63;84.20
1480;BME280;732;51.698;4.886;2024-03-08T01:03:24;101964.97;;;0.58;85.03
1480;BME280;732;51.698;4.886;2024-03-08T01:05:53;101926.03;;;0.48;84.51
1480;BME280;732;51.698;4.886;2024-03-08T01:08:22;101949.78;;;0.64;84.26
1480;BME280;732;51.698;4.886;2024-03-08T01:10:51;101943.91;;;0.58;84.56
1480;BME280;732;51.698;4.886;2024-03-08T01:13:21;101944.44;;;0.65;84.65
1480;BME280;732;51.698;4.886;2024-03-08T01:15:53;101936.41;;;0.51;84.14
1480;BME280;732;51.698;4.886;2024-03-08T01:18:21;101908.78;;;0.42;83.86
1480;BME280;732;51.698;4.886;2024-03-08T01:20:50;101873.91;;;0.19;83.81
1480;BME280;732;51.698;4.886;2024-03-08T01:23:19;101929.66;;;0.45;84.22
1480;BME280;732;51.698;4.886;2024-03-08T01:25:47;101920.66;;;0.49;83.81
1480;BME280;732;51.698;4.886;2024-03-08T01:28:25;101925.25;;;0.46;83.98
1480;BME280;732;51.698;4.886;2024-03-08T01:30:55;101912.72;;;0.51;83.09
1480;BME280;732;51.698;4.886;2024-03-08T01:33:24;101877.19;;;0.24;83.06
1480;BME280;732;51.698;4.886;2024-03-08T01:35:53;101877.63;;;0.15;83.81
1480;BME280;732;51.698;4.886;2024-03-08T01:38:22;101896.31;;;0.28;83.52
1480;BME280;732;51.698;4.886;2024-03-08T01:40:51;101896.22;;;0.30;83.47
1480;BME280;732;51.698;4.886;2024-03-08T01:43:20;101888.63;;;0.23;83.38
1480;BME280;732;51.698;4.886;2024-03-08T01:45:51;101896.97;;;0.14;83.78
1480;BME280;732;51.698;4.886;2024-03-08T01:48:21;101912.41;;;0.22;83.99
1480;BME280;732;51.698;4.886;2024-03-08T01:50:52;101911.31;;;0.26;83.62
1480;BME280;732;51.698;4.886;2024-03-08T01:53:22;101889.16;;;0.13;83.75
1480;BME280;732;51.698;4.886;2024-03-08T01:55:56;101883.19;;;0.09;84.08
1480;BME280;732;51.698;4.886;2024-03-08T01:58:25;101884.91;;;0.10;83.79
1480;BME280;732;51.698;4.886;2024-03-08T02:00:57;101882.06;;;0.15;83.24
1480;BME280;732;51.698;4.886;2024-03-08T02:03:27;101882.97;;;0.14;83.23
1480;BME280;732;51.698;4.886;2024-03-08T02:05:55;101893.50;;;0.14;83.45
1480;BME280;732;51.698;4.886;2024-03-08T02:08:26;101837.31;;;-0.20;83.33
1480;BME280;732;51.698;4.886;2024-03-08T02:10:55;101884.91;;;0.10;83.97
1480;BME280;732;51.698;4.886;2024-03-08T02:13:24;101839.94;;;-0.20;83.34
1480;BME280;732;51.698;4.886;2024-03-08T02:15:53;101875.91;;;-0.03;83.84
1480;BME280;732;51.698;4.886;2024-03-08T02:18:24;101854.88;;;-0.03;83.81
1480;BME280;732;51.698;4.886;2024-03-08T02:20:55;101847.75;;;-0.19;83.67
1480;BME280;732;51.698;4.886;2024-03-08T02:23:25;101829.63;;;-0.25;82.86
1480;BME280;732;51.698;4.886;2024-03-08T02:25:55;101848.66;;;-0.20;83.23
1480;BME280;732;51.698;4.886;2024-03-08T02:28:24;101844.94;;;-0.16;83.74
1480;BME280;732;51.698;4.886;2024-03-08T02:30:53;101861.22;;;-0.08;83.76
1480;BME280;732;51.698;4.886;2024-03-08T02:33:26;101837.19;;;-0.36;84.37
1480;BME280;732;51.698;4.886;2024-03-08T02:35:56;101861.56;;;-0.33;84.11
1480;BME280;732;51.698;4.886;2024-03-08T02:38:25;101857.69;;;-0.26;84.52
1480;BME280;732;51.698;4.886;2024-03-08T02:40:55;101801.50;;;-0.60;84.43
1480;BME280;732;51.698;4.886;2024-03-08T02:43:24;101851.09;;;-0.34;84.35
1480;BME280;732;51.698;4.886;2024-03-08T02:45:52;101804.81;;;-0.56;84.34
1480;BME280;732;51.698;4.886;2024-03-08T02:48:21;101844.06;;;-0.34;84.54
1480;BME280;732;51.698;4.886;2024-03-08T02:50:51;101836.66;;;-0.26;84.51
1480;BME280;732;51.698;4.886;2024-03-08T02:53:22;101829.94;;;-0.31;84.26
1480;BME280;732;51.698;4.886;2024-03-08T02:55:52;101824.81;;;-0.34;84.70
1480;BME280;732;51.698;4.886;2024-03-08T02:58:22;101820.13;;;-0.47;84.77
1480;BME280;732;51.698;4.886;2024-03-08T03:00:51;101807.25;;;-0.51;84.79
1480;BME280;732;51.698;4.886;2024-03-08T03:03:20;101811.66;;;-0.34;84.96
1480;BME280;732;51.698;4.886;2024-03-08T03:05:48;101793.72;;;-0.44;84.49
1480;BME280;732;51.698;4.886;2024-03-08T03:08:17;101800.81;;;-0.46;84.84
1480;BME280;732;51.698;4.886;2024-03-08T03:10:48;101805.38;;;-0.49;85.02
1480;BME280;732;51.698;4.886;2024-03-08T03:13:16;101803.91;;;-0.55;85.45
1480;BME280;732;51.698;4.886;2024-03-08T03:15:47;101772.25;;;-0.71;85.43
1480;BME280;732;51.698;4.886;2024-03-08T03:18:15;101801.13;;;-0.52;85.38
1480;BME280;732;51.698;4.886;2024-03-08T03:20:45;101794.09;;;-0.51;85.66
1480;BME280;732;51.698;4.886;2024-03-08T03:23:14;101791.47;;;-0.51;85.06
1480;BME280;732;51.698;4.886;2024-03-08T03:25:49;101793.81;;;-0.45;84.92
1480;BME280;732;51.698;4.886;2024-03-08T03:28:19;101796.66;;;-0.50;84.29
1480;BME280;732;51.698;4.886;2024-03-08T03:30:51;101801.75;;;-0.47;84.78
1480;BME280;732;51.698;4.886;2024-03-08T03:33:20;101795.06;;;-0.35;83.77
1480;BME280;732;51.698;4.886;2024-03-08T03:35:49;101777.63;;;-0.55;83.65
1480;BME280;732;51.698;4.886;2024-03-08T03:38:21;101792.47;;;-0.54;84.28
1480;BME280;732;51.698;4.886;2024-03-08T03:40:52;101790.69;;;-0.53;83.96
1480;BME280;732;51.698;4.886;2024-03-08T03:43:24;101771.25;;;-0.68;83.95
1480;BME280;732;51.698;4.886;2024-03-08T03:45:53;101758.41;;;-0.75;84.48
1480;BME280;732;51.698;4.886;2024-03-08T03:48:22;101741.31;;;-0.83;84.03
1480;BME280;732;51.698;4.886;2024-03-08T03:50:51;101733.19;;;-0.96;84.54
1480;BME280;732;51.698;4.886;2024-03-08T03:53:20;101757.06;;;-0.83;85.07
1480;BME280;732;51.698;4.886;2024-03-08T03:55:48;101765.50;;;-0.77;84.95
1480;BME280;732;51.698;4.886;2024-03-08T03:58:19;101746.44;;;-0.80;84.96
1480;BME280;732;51.698;4.886;2024-03-08T04:00:49;101774.09;;;-0.73;84.84
1480;BME280;732;51.698;4.886;2024-03-08T04:03:18;101739.44;;;-0.99;84.90
1480;BME280;732;51.698;4.886;2024-03-08T04:05:47;101746.75;;;-0.87;84.81
1480;BME280;732;51.698;4.886;2024-03-08T04:08:16;101720.19;;;-0.99;84.75
1480;BME280;732;51.698;4.886;2024-03-08T04:10:44;101767.00;;;-0.71;84.42
1480;BME280;732;51.698;4.886;2024-03-08T04:13:13;101755.25;;;-0.81;85.05
1480;BME280;732;51.698;4.886;2024-03-08T04:15:44;101763.84;;;-0.78;84.72
1480;BME280;732;51.698;4.886;2024-03-08T04:18:16;101746.78;;;-0.88;85.07
1480;BME280;732;51.698;4.886;2024-03-08T04:20:45;101757.56;;;-0.75;84.58
1480;BME280;732;51.698;4.886;2024-03-08T04:23:14;101757.28;;;-0.69;84.17
1480;BME280;732;51.698;4.886;2024-03-08T04:25:43;101742.03;;;-0.80;84.65
1480;BME280;732;51.698;4.886;2024-03-08T04:28:12;101734.84;;;-0.76;84.06
1480;BME280;732;51.698;4.886;2024-03-08T04:30:40;101749.00;;;-0.79;83.95
1480;BME280;732;51.698;4.886;2024-03-08T04:33:12;101729.91;;;-0.82;84.39
1480;BME280;732;51.698;4.886;2024-03-08T04:35:42;101755.16;;;-0.80;84.16
1480;BME280;732;51.698;4.886;2024-03-08T04:38:13;101705.00;;;-1.12;84.30
1480;BME280;732;51.698;4.886;2024-03-08T04:40:42;101716.56;;;-0.97;83.81
1480;BME280;732;51.698;4.886;2024-03-08T04:43:11;101708.44;;;-1.10;84.32
1480;BME280;732;51.698;4.886;2024-03-08T04:45:41;101722.53;;;-0.93;83.81
1480;BME280;732;51.698;4.886;2024-03-08T04:48:12;101740.41;;;-0.82;84.16
1480;BME280;732;51.698;4.886;2024-03-08T04:50:41;101734.53;;;-0.88;84.20
1480;BME280;732;51.698;4.886;2024-03-08T04:53:10;101739.69;;;-0.86;83.98
1480;BME280;732;51.698;4.886;2024-03-08T04:55:38;101742.25;;;-0.84;84.48
1480;BME280;732;51.698;4.886;2024-03-08T04:58:07;101726.66;;;-0.88;84.04
1480;BME280;732;51.698;4.886;2024-03-08T05:00:36;101730.41;;;-0.93;84.20
1480;BME280;732;51.698;4.886;2024-03-08T05:03:05;101735.66;;;-0.93;83.94
1480;BME280;732;51.698;4.886;2024-03-08T05:05:35;101728.84;;;-0.97;84.46
1480;BME280;732;51.698;4.886;2024-03-08T05:08:05;101723.31;;;-0.91;84.15
1480;BME280;732;51.698;4.886;2024-03-08T05:10:33;101722.44;;;-0.92;84.06
1480;BME280;732;51.698;4.886;2024-03-08T05:13:05;101718.19;;;-0.94;84.05
1480;BME280;732;51.698;4.886;2024-03-08T05:15:33;101721.56;;;-1.10;84.58
1480;BME280;732;51.698;4.886;2024-03-08T05:18:02;101717.31;;;-1.12;84.58
1480;BME280;732;51.698;4.886;2024-03-08T05:20:31;101714.31;;;-1.05;84.84
1480;BME280;732;51.698;4.886;2024-03-08T05:23:02;101701.56;;;-1.12;84.47
1480;BME280;732;51.698;4.886;2024-03-08T05:25:30;101711.59;;;-1.03;84.60
1480;BME280;732;51.698;4.886;2024-03-08T05:27:59;101718.91;;;-0.91;84.15
1480;BME280;732;51.698;4.886;2024-03-08T05:30:28;101715.28;;;-0.88;83.88
1480;BME280;732;51.698;4.886;2024-03-08T05:32:56;101680.00;;;-1.19;83.69
1480;BME280;732;51.698;4.886;2024-03-08T05:35:25;101639.88;;;-1.40;83.99
1480;BME280;732;51.698;4.886;2024-03-08T05:37:54;101700.19;;;-1.02;83.91
1480;BME280;732;51.698;4.886;2024-03-08T05:40:24;101696.94;;;-1.07;83.94
1480;BME280;732;51.698;4.886;2024-03-08T05:42:52;101670.47;;;-1.22;83.77
1480;BME280;732;51.698;4.886;2024-03-08T05:45:21;101703.81;;;-1.05;84.46
1480;BME280;732;51.698;4.886;2024-03-08T05:47:54;101686.28;;;-1.23;84.54
1480;BME280;732;51.698;4.886;2024-03-08T05:50:23;101652.00;;;-1.38;84.42
1480;BME280;732;51.698;4.886;2024-03-08T05:52:52;101698.41;;;-1.21;84.60
1480;BME280;732;51.698;4.886;2024-03-08T05:55:23;101686.72;;;-1.13;84.75
1480;BME280;732;51.698;4.886;2024-03-08T05:57:52;101580.47;;;-1.79;83.97
1480;BME280;732;51.698;4.886;2024-03-08T06:00:21;101663.88;;;-1.30;84.61
1480;BME280;732;51.698;4.886;2024-03-08T06:02:49;101666.28;;;-1.26;84.31
1480;BME280;732;51.698;4.886;2024-03-08T06:05:19;101687.34;;;-1.08;84.48
1480;BME280;732;51.698;4.886;2024-03-08T06:07:50;101635.31;;;-1.37;84.01
1480;BME280;732;51.698;4.886;2024-03-08T06:10:22;101677.06;;;-1.13;83.80
1480;BME280;732;51.698;4.886;2024-03-08T06:12:51;101674.75;;;-1.19;84.17
1480;BME280;732;51.698;4.886;2024-03-08T06:15:20;101623.63;;;-1.48;84.45
1480;BME280;732;51.698;4.886;2024-03-08T06:17:48;101672.75;;;-1.14;84.65
1480;BME280;732;51.698;4.886;2024-03-08T06:20:17;101675.13;;;-1.09;84.36
1480;BME280;732;51.698;4.886;2024-03-08T06:22:46;101640.91;;;-1.25;83.94
1480;BME280;732;51.698;4.886;2024-03-08T06:25:15;101660.34;;;-1.10;84.22
1480;BME280;732;51.698;4.886;2024-03-08T06:27:45;101668.53;;;-0.99;84.26
1480;BME280;732;51.698;4.886;2024-03-08T06:30:14;101666.06;;;-1.02;84.06
1480;BME280;732;51.698;4.886;2024-03-08T06:32:46;101672.63;;;-0.93;83.69
1480;BME280;732;51.698;4.886;2024-03-08T06:35:16;101646.06;;;-1.05;84.32
1480;BME280;732;51.698;4.886;2024-03-08T06:37:44;101656.25;;;-0.98;83.70
1480;BME280;732;51.698;4.886;2024-03-08T06:40:14;101662.16;;;-0.76;84.18
1480;BME280;732;51.698;4.886;2024-03-08T06:42:44;101665.69;;;-0.77;84.01
1480;BME280;732;51.698;4.886;2024-03-08T06:45:14;101649.09;;;-0.77;83.40
1480;BME280;732;51.698;4.886;2024-03-08T06:47:46;101652.06;;;-0.66;83.58
1480;BME280;732;51.698;4.886;2024-03-08T06:50:16;101648.28;;;-0.60;83.22
1480;BME280;732;51.698;4.886;2024-03-08T06:52:44;101557.31;;;-1.15;83.68
1480;BME280;732;51.698;4.886;2024-03-08T06:55:18;101644.34;;;-0.51;83.15
1480;BME280;732;51.698;4.886;2024-03-08T06:57:48;101658.22;;;-0.32;83.33
1480;BME280;732;51.698;4.886;2024-03-08T07:00:17;101653.28;;;-0.20;83.00
1480;BME280;732;51.698;4.886;2024-03-08T07:02:48;101597.34;;;-0.40;81.99
1480;BME280;732;51.698;4.886;2024-03-08T07:05:20;101657.31;;;0.03;82.23
1480;BME280;732;51.698;4.886;2024-03-08T07:07:48;101655.56;;;0.03;82.29
1480;BME280;732;51.698;4.886;2024-03-08T07:10:18;101658.44;;;-0.01;81.86
1480;BME280;732;51.698;4.886;2024-03-08T07:12:51;101634.69;;;0.00;81.75
1480;BME280;732;51.698;4.886;2024-03-08T07:15:20;101620.09;;;-0.06;81.71
1480;BME280;732;51.698;4.886;2024-03-08T07:17:50;101644.47;;;0.14;81.99
1480;BME280;732;51.698;4.886;2024-03-08T07:20:20;101642.78;;;0.13;81.56
1480;BME280;732;51.698;4.886;2024-03-08T07:22:49;101637.59;;;0.12;81.67
1480;BME280;732;51.698;4.886;2024-03-08T07:25:19;101656.34;;;0.21;82.53
1480;BME280;732;51.698;4.886;2024-03-08T07:27:54;101640.94;;;0.31;81.79
1480;BME280;732;51.698;4.886;2024-03-08T07:30:26;101585.84;;;0.12;80.79
1480;BME280;732;51.698;4.886;2024-03-08T07:33:12;101625.94;;;0.33;80.80
1480;BME280;732;51.698;4.886;2024-03-08T07:35:42;101641.97;;;0.45;80.76
1480;BME280;732;51.698;4.886;2024-03-08T07:38:12;101637.47;;;0.47;80.61
1480;BME280;732;51.698;4.886;2024-03-08T07:40:42;101628.97;;;0.57;81.38
1480;BME280;732;51.698;4.886;2024-03-08T07:43:14;101609.13;;;0.52;80.91
1480;BME280;732;51.698;4.886;2024-03-08T07:45:44;101623.38;;;0.64;81.01
1480;BME280;732;51.698;4.886;2024-03-08T07:48:12;101619.91;;;0.63;80.51
1480;BME280;732;51.698;4.886;2024-03-08T07:50:41;101611.22;;;0.61;80.63
1480;BME280;732;51.698;4.886;2024-03-08T07:53:10;101620.50;;;0.84;80.40
1480;BME280;732;51.698;4.886;2024-03-08T07:55:38;101606.13;;;0.74;80.44
1480;BME280;732;51.698;4.886;2024-03-08T07:58:10;101588.38;;;0.78;79.80
1480;BME280;732;51.698;4.886;2024-03-08T08:00:41;101614.44;;;0.98;79.46
1480;BME280;732;51.698;4.886;2024-03-08T08:03:10;101596.72;;;1.00;80.32
1480;BME280;732;51.698;4.886;2024-03-08T08:05:40;101597.91;;;1.11;79.21
1480;BME280;732;51.698;4.886;2024-03-08T08:08:08;101605.28;;;1.20;79.66
1480;BME280;732;51.698;4.886;2024-03-08T08:10:39;101568.28;;;1.21;79.40
1480;BME280;732;51.698;4.886;2024-03-08T08:13:07;101589.72;;;1.46;78.92
1480;BME280;732;51.698;4.886;2024-03-08T08:15:36;101595.97;;;1.73;78.79
1480;BME280;732;51.698;4.886;2024-03-08T08:18:06;101600.84;;;1.80;77.58
1480;BME280;732;51.698;4.886;2024-03-08T08:20:37;101587.84;;;1.91;77.77
1480;BME280;732;51.698;4.886;2024-03-08T08:23:06;101553.19;;;1.97;77.98
1480;BME280;732;51.698;4.886;2024-03-08T08:25:36;101533.88;;;1.97;77.06
1480;BME280;732;51.698;4.886;2024-03-08T08:28:05;101545.25;;;2.26;76.44
1480;BME280;732;51.698;4.886;2024-03-08T08:30:34;101583.44;;;2.62;76.08
1480;BME280;732;51.698;4.886;2024-03-08T08:33:03;101576.31;;;2.77;75.53
1480;BME280;732;51.698;4.886;2024-03-08T08:35:34;101563.53;;;2.84;75.08
1480;BME280;732;51.698;4.886;2024-03-08T08:38:03;101528.84;;;2.76;75.24
1480;BME280;732;51.698;4.886;2024-03-08T08:40:32;101535.88;;;3.02;75.09
1480;BME280;732;51.698;4.886;2024-03-08T08:43:03;101565.66;;;3.45;73.89
1480;BME280;732;51.698;4.886;2024-03-08T08:45:32;101550.19;;;3.51;73.47
1480;BME280;732;51.698;4.886;2024-03-08T08:48:01;101531.16;;;3.33;71.60
1480;BME280;732;51.698;4.886;2024-03-08T08:50:30;101530.84;;;3.51;72.29
1480;BME280;732;51.698;4.886;2024-03-08T08:53:01;101498.06;;;3.54;71.38
1480;BME280;732;51.698;4.886;2024-03-08T08:55:31;101553.03;;;4.00;70.69
1480;BME280;732;51.698;4.886;2024-03-08T08:58:03;101548.84;;;4.22;70.37
1480;BME280;732;51.698;4.886;2024-03-08T09:00:33;101542.47;;;4.37;70.11
1480;BME280;732;51.698;4.886;2024-03-08T09:03:03;101548.56;;;4.51;69.53
1480;BME280;732;51.698;4.886;2024-03-08T09:05:34;101497.66;;;4.34;69.52
1480;BME280;732;51.698;4.886;2024-03-08T09:08:07;101517.50;;;4.53;68.54
1480;BME280;732;51.698;4.886;2024-03-08T09:10:37;101529.41;;;4.83;69.07
1480;BME280;732;51.698;4.886;2024-03-08T09:13:06;101516.78;;;4.86;68.29
1480;BME280;732;51.698;4.886;2024-03-08T09:15:44;101510.97;;;5.05;68.34
1480;BME280;732;51.698;4.886;2024-03-08T09:18:13;101518.97;;;5.39;67.74
1480;BME280;732;51.698;4.886;2024-03-08T09:20:42;101516.19;;;5.52;66.91
1480;BME280;732;51.698;4.886;2024-03-08T09:23:12;101466.88;;;5.27;65.55
1480;BME280;732;51.698;4.886;2024-03-08T09:25:42;101504.13;;;5.59;66.35
1480;BME280;732;51.698;4.886;2024-03-08T09:28:13;101499.56;;;5.73;66.73
1480;BME280;732;51.698;4.886;2024-03-08T09:30:43;101497.69;;;5.96;64.94
1480;BME280;732;51.698;4.886;2024-03-08T09:33:25;101479.75;;;5.88;64.72
1480;BME280;732;51.698;4.886;2024-03-08T09:35:56;101470.19;;;5.97;64.58
1480;BME280;732;51.698;4.886;2024-03-08T09:38:31;101469.66;;;6.15;64.16
1480;BME280;732;51.698;4.886;2024-03-08T09:41:02;101478.69;;;6.23;64.25
1480;BME280;732;51.698;4.886;2024-03-08T09:43:33;101464.28;;;6.49;64.55
1480;BME280;732;51.698;4.886;2024-03-08T09:46:03;101463.22;;;6.72;65.60
1480;BME280;732;51.698;4.886;2024-03-08T09:48:33;101456.72;;;6.86;63.31
1480;BME280;732;51.698;4.886;2024-03-08T09:51:04;101421.06;;;6.68;62.90
1480;BME280;732;51.698;4.886;2024-03-08T09:53:35;101399.81;;;6.68;63.14
1480;BME280;732;51.698;4.886;2024-03-08T09:56:04;101429.56;;;6.83;61.98
1480;BME280;732;51.698;4.886;2024-03-08T09:58:33;101422.03;;;6.88;62.30
1480;BME280;732;51.698;4.886;2024-03-08T10:01:21;101425.25;;;6.92;62.67
1480;BME280;732;51.698;4.886;2024-03-08T10:03:50;101412.66;;;7.15;62.76
1480;BME280;732;51.698;4.886;2024-03-08T10:06:23;101389.88;;;7.01;61.17
1480;BME280;732;51.698;4.886;2024-03-08T10:08:53;101374.84;;;7.11;61.72
1480;BME280;732;51.698;4.886;2024-03-08T10:11:22;101384.56;;;7.32;62.22
1480;BME280;732;51.698;4.886;2024-03-08T10:13:54;101391.91;;;7.49;61.99
1480;BME280;732;51.698;4.886;2024-03-08T10:16:25;101390.97;;;7.60;60.63
1480;BME280;732;51.698;4.886;2024-03-08T10:18:56;101379.16;;;7.53;59.67
1480;BME280;732;51.698;4.886;2024-03-08T10:21:25;101376.38;;;7.64;59.84
1480;BME280;732;51.698;4.886;2024-03-08T10:23:56;101374.63;;;7.84;59.93
1480;BME280;732;51.698;4.886;2024-03-08T10:26:25;101345.31;;;7.84;59.39
1480;BME280;732;51.698;4.886;2024-03-08T10:28:54;101330.03;;;8.06;59.86
1480;BME280;732;51.698;4.886;2024-03-08T10:31:25;101320.09;;;8.08;58.35
1480;BME280;732;51.698;4.886;2024-03-08T10:33:54;101354.72;;;8.47;58.47
1480;BME280;732;51.698;4.886;2024-03-08T10:36:23;101351.72;;;8.60;59.22
1480;BME280;732;51.698;4.886;2024-03-08T10:38:54;101330.00;;;8.45;56.13
1480;BME280;732;51.698;4.886;2024-03-08T10:41:25;101331.13;;;8.52;55.88
1480;BME280;732;51.698;4.886;2024-03-08T10:44:11;101321.13;;;8.74;57.81
1480;BME280;732;51.698;4.886;2024-03-08T10:46:59;101292.25;;;8.60;55.63
1480;BME280;732;51.698;4.886;2024-03-08T10:49:38;101277.06;;;8.60;56.47
1480;BME280;732;51.698;4.886;2024-03-08T10:52:12;101284.66;;;8.93;57.30
1480;BME280;732;51.698;4.886;2024-03-08T10:54:42;101311.19;;;9.22;56.48
1480;BME280;732;51.698;4.886;2024-03-08T10:57:13;101302.09;;;9.15;54.79
1480;BME280;732;51.698;4.886;2024-03-08T10:59:43;101284.31;;;9.06;55.08
1480;BME280;732;51.698;4.886;2024-03-08T11:02:12;101295.91;;;9.42;56.94
1480;BME280;732;51.698;4.886;2024-03-08T11:04:46;101294.75;;;9.45;54.51
1480;BME280;732;51.698;4.886;2024-03-08T11:07:17;101232.50;;;9.08;53.53
1480;BME280;732;51.698;4.886;2024-03-08T11:09:49;101290.06;;;9.57;53.04
1480;BME280;732;51.698;4.886;2024-03-08T11:12:26;101263.56;;;9.63;53.34
1480;BME280;732;51.698;4.886;2024-03-08T11:14:59;101259.59;;;9.86;53.46
1480;BME280;732;51.698;4.886;2024-03-08T11:17:45;101242.59;;;9.95;52.27
1480;BME280;732;51.698;4.886;2024-03-08T11:20:17;101246.91;;;10.06;52.16
1480;BME280;732;51.698;4.886;2024-03-08T11:22:51;101272.53;;;10.17;51.35
1480;BME280;732;51.698;4.886;2024-03-08T11:25:36;101192.00;;;9.67;50.27
1480;BME280;732;51.698;4.886;2024-03-08T11:28:17;101250.97;;;10.36;52.33
1480;BME280;732;51.698;4.886;2024-03-08T11:33:40;101242.38;;;10.59;50.71
1480;BME280;732;51.698;4.886;2024-03-08T11:36:13;101254.78;;;10.68;50.24
1480;BME280;732;51.698;4.886;2024-03-08T11:38:50;101226.25;;;10.42;49.71
1480;BME280;732;51.698;4.886;2024-03-08T11:41:22;101251.06;;;10.61;50.24
1480;BME280;732;51.698;4.886;2024-03-08T11:44:04;101242.81;;;10.46;49.82
1480;BME280;732;51.698;4.886;2024-03-08T11:46:34;101247.31;;;10.45;49.74
1480;BME280;732;51.698;4.886;2024-03-08T11:49:02;101241.94;;;10.72;49.70
1480;BME280;732;51.698;4.886;2024-03-08T11:51:33;101248.41;;;10.61;49.75
1480;BME280;732;51.698;4.886;2024-03-08T11:54:02;101242.16;;;10.78;49.37
1480;BME280;732;51.698;4.886;2024-03-08T11:56:32;101203.97;;;10.68;49.19
1480;BME280;732;51.698;4.886;2024-03-08T11:59:01;101224.44;;;10.86;49.28
1480;BME280;732;51.698;4.886;2024-03-08T12:01:30;101198.59;;;10.60;48.16
1480;BME280;732;51.698;4.886;2024-03-08T12:04:00;101208.66;;;10.74;49.33
1480;BME280;732;51.698;4.886;2024-03-08T12:06:40;101211.69;;;10.71;49.82
1480;BME280;732;51.698;4.886;2024-03-08T12:09:10;101187.94;;;10.76;48.64
1480;BME280;732;51.698;4.886;2024-03-08T12:11:42;101148.59;;;10.60;49.57
1480;BME280;732;51.698;4.886;2024-03-08T12:14:14;101109.69;;;10.23;48.78
1480;BME280;732;51.698;4.886;2024-03-08T12:16:43;101132.03;;;10.49;48.57
1480;BME280;732;51.698;4.886;2024-03-08T12:19:12;101197.66;;;10.86;48.26
1480;BME280;732;51.698;4.886;2024-03-08T12:21:42;101188.53;;;11.05;48.12
1480;BME280;732;51.698;4.886;2024-03-08T12:24:17;101168.47;;;11.09;48.95
1480;BME280;732;51.698;4.886;2024-03-08T12:26:48;101036.06;;;10.37;48.58
1480;BME280;732;51.698;4.886;2024-03-08T12:29:20;101175.72;;;11.50;50.11
1480;BME280;732;51.698;4.886;2024-03-08T12:31:52;101177.38;;;11.75;48.96
1480;BME280;732;51.698;4.886;2024-03-08T12:34:22;101143.91;;;11.47;46.62
1480;BME280;732;51.698;4.886;2024-03-08T12:36:52;101140.56;;;11.45;47.48
1480;BME280;732;51.698;4.886;2024-03-08T12:39:22;101160.31;;;11.52;48.21
1480;BME280;732;51.698;4.886;2024-03-08T12:41:56;101149.75;;;11.50;46.63
1480;BME280;732;51.698;4.886;2024-03-08T12:44:26;101109.56;;;11.25;46.73
1480;BME280;732;51.698;4.886;2024-03-08T12:46:56;101123.84;;;11.42;47.14
1480;BME280;732;51.698;4.886;2024-03-08T12:49:27;101096.38;;;11.40;47.04
1480;BME280;732;51.698;4.886;2024-03-08T12:51:57;101118.63;;;11.66;46.61
1480;BME280;732;51.698;4.886;2024-03-08T12:54:26;101129.81;;;11.86;44.90
1480;BME280;732;51.698;4.886;2024-03-08T12:56:56;101138.41;;;12.21;46.96
1480;BME280;732;51.698;4.886;2024-03-08T12:59:26;101124.44;;;12.34;44.30
1480;BME280;732;51.698;4.886;2024-03-08T13:01:55;101121.78;;;12.65;46.53
1480;BME280;732;51.698;4.886;2024-03-08T13:04:27;101112.50;;;12.76;45.14
1480;BME280;732;51.698;4.886;2024-03-08T13:06:58;101118.72;;;12.77;44.05
1480;BME280;732;51.698;4.886;2024-03-08T13:09:28;101122.66;;;12.89;44.56
1480;BME280;732;51.698;4.886;2024-03-08T13:11:59;101115.88;;;12.78;42.91
1480;BME280;732;51.698;4.886;2024-03-08T13:14:28;101115.50;;;12.81;43.82
1480;BME280;732;51.698;4.886;2024-03-08T13:16:59;101113.25;;;12.93;43.81
1480;BME280;732;51.698;4.886;2024-03-08T13:19:28;101103.75;;;13.06;44.05
1480;BME280;732;51.698;4.886;2024-03-08T13:21:56;101083.72;;;12.93;43.54
1480;BME280;732;51.698;4.886;2024-03-08T13:24:25;101059.59;;;12.85;43.88
1480;BME280;732;51.698;4.886;2024-03-08T13:26:54;101089.31;;;12.83;41.82
1480;BME280;732;51.698;4.886;2024-03-08T13:29:24;101065.00;;;12.53;43.23
1480;BME280;732;51.698;4.886;2024-03-08T13:31:52;101077.63;;;12.45;43.45
1480;BME280;732;51.698;4.886;2024-03-08T13:34:24;101057.66;;;12.16;44.03
1480;BME280;732;51.698;4.886;2024-03-08T13:36:57;101072.59;;;12.42;43.58
1480;BME280;732;51.698;4.886;2024-03-08T13:39:28;101065.81;;;12.54;44.24
1480;BME280;732;51.698;4.886;2024-03-08T13:42:02;101056.84;;;12.47;43.74
1480;BME280;732;51.698;4.886;2024-03-08T13:44:39;101063.50;;;12.51;43.04
1480;BME280;732;51.698;4.886;2024-03-08T13:47:07;101048.50;;;12.65;44.01